sensor_id;sensor_type;location;lat;lon;timestamp;P1;durP1;ratioP1;P2;durP2;ratioP2
55756;SDS011;41676;44.610;44.078;2023-06-24T00:02:47;10.88;;;3.08;;
55756;SDS011;41676;44.610;44.078;2023-06-24T00:07:48;6.78;;;2.85;;
55756;SDS011;41676;44.610;44.078;2023-06-24T00:12:49;9.15;;;2.88;;
55756;SDS011;41676;44.610;44.078;2023-06-24T00:17:50;12.10;;;2.88;;
55756;SDS011;41676;44.610;44.078;2023-06-24T00:22:51;23.90;;;3.17;;
55756;SDS011;41676;44.610;44.078;2023-06-24T00:27:52;6.00;;;3.03;;
55756;SDS011;41676;44.610;44.078;2023-06-24T00:32:53;9.77;;;2.88;;
55756;SDS011;41676;44.610;44.078;2023-06-24T00:37:53;18.75;;;4.43;;
55756;SDS011;41676;44.610;44.078;2023-06-24T00:42:58;9.30;;;3.15;;
55756;SDS011;41676;44.610;44.078;2023-06-24T00:47:59;8.57;;;2.75;;
55756;SDS011;41676;44.610;44.078;2023-06-24T00:53:01;10.88;;;3.05;;
55756;SDS011;41676;44.610;44.078;2023-06-24T00:58:02;9.65;;;3.00;;
55756;SDS011;41676;44.610;44.078;2023-06-24T01:03:03;42.50;;;5.53;;
55756;SDS011;41676;44.610;44.078;2023-06-24T01:08:04;33.53;;;4.95;;
55756;SDS011;41676;44.610;44.078;2023-06-24T01:13:05;7.63;;;3.20;;
55756;SDS011;41676;44.610;44.078;2023-06-24T01:18:23;27.50;;;5.00;;
55756;SDS011;41676;44.610;44.078;2023-06-24T01:34:27;15.90;;;4.10;;
55756;SDS011;41676;44.610;44.078;2023-06-24T01:39:34;18.45;;;3.92;;
55756;SDS011;41676;44.610;44.078;2023-06-24T01:44:43;16.25;;;3.35;;
55756;SDS011;41676;44.610;44.078;2023-06-24T01:49:45;10.23;;;3.45;;
55756;SDS011;41676;44.610;44.078;2023-06-24T01:54:48;37.83;;;5.28;;
55756;SDS011;41676;44.610;44.078;2023-06-24T01:59:50;22.50;;;5.00;;
55756;SDS011;41676;44.610;44.078;2023-06-24T02:04:53;27.15;;;4.35;;
55756;SDS011;41676;44.610;44.078;2023-06-24T02:09:55;9.25;;;3.35;;
55756;SDS011;41676;44.610;44.078;2023-06-24T02:14:58;13.52;;;3.75;;
55756;SDS011;41676;44.610;44.078;2023-06-24T02:20:01;7.55;;;2.95;;
55756;SDS011;41676;44.610;44.078;2023-06-24T02:30:06;8.32;;;3.00;;
55756;SDS011;41676;44.610;44.078;2023-06-24T02:35:09;28.95;;;3.90;;
55756;SDS011;41676;44.610;44.078;2023-06-24T02:40:10;17.08;;;3.75;;
55756;SDS011;41676;44.610;44.078;2023-06-24T02:45:11;6.53;;;2.83;;
55756;SDS011;41676;44.610;44.078;2023-06-24T02:50:13;6.10;;;2.40;;
55756;SDS011;41676;44.610;44.078;2023-06-24T02:55:14;17.65;;;3.65;;
55756;SDS011;41676;44.610;44.078;2023-06-24T03:00:16;10.02;;;3.35;;
55756;SDS011;41676;44.610;44.078;2023-06-24T03:05:17;12.65;;;3.70;;
55756;SDS011;41676;44.610;44.078;2023-06-24T03:10:19;9.48;;;3.50;;
55756;SDS011;41676;44.610;44.078;2023-06-24T03:15:19;10.70;;;3.60;;
55756;SDS011;41676;44.610;44.078;2023-06-24T03:20:20;9.40;;;3.38;;
55756;SDS011;41676;44.610;44.078;2023-06-24T03:25:21;9.35;;;2.72;;
55756;SDS011;41676;44.610;44.078;2023-06-24T03:30:22;9.13;;;3.17;;
55756;SDS011;41676;44.610;44.078;2023-06-24T03:35:23;7.13;;;3.35;;
55756;SDS011;41676;44.610;44.078;2023-06-24T03:40:24;14.18;;;3.25;;
55756;SDS011;41676;44.610;44.078;2023-06-24T03:45:25;6.00;;;2.63;;
55756;SDS011;41676;44.610;44.078;2023-06-24T03:50:26;8.32;;;3.75;;
55756;SDS011;41676;44.610;44.078;2023-06-24T03:55:26;9.45;;;3.67;;
55756;SDS011;41676;44.610;44.078;2023-06-24T04:00:27;8.98;;;3.45;;
55756;SDS011;41676;44.610;44.078;2023-06-24T04:05:28;6.70;;;3.15;;
55756;SDS011;41676;44.610;44.078;2023-06-24T04:10:29;8.30;;;3.13;;
55756;SDS011;41676;44.610;44.078;2023-06-24T04:15:30;12.00;;;3.50;;
55756;SDS011;41676;44.610;44.078;2023-06-24T04:20:30;7.22;;;3.72;;
55756;SDS011;41676;44.610;44.078;2023-06-24T04:25:31;9.15;;;4.03;;
55756;SDS011;41676;44.610;44.078;2023-06-24T04:30:32;6.57;;;3.60;;
55756;SDS011;41676;44.610;44.078;2023-06-24T04:35:35;8.30;;;3.53;;
55756;SDS011;41676;44.610;44.078;2023-06-24T04:40:36;9.50;;;3.70;;
55756;SDS011;41676;44.610;44.078;2023-06-24T04:45:37;13.90;;;3.88;;
55756;SDS011;41676;44.610;44.078;2023-06-24T04:50:38;31.52;;;4.50;;
55756;SDS011;41676;44.610;44.078;2023-06-24T04:55:38;9.82;;;3.75;;
55756;SDS011;41676;44.610;44.078;2023-06-24T05:00:39;20.30;;;4.68;;
55756;SDS011;41676;44.610;44.078;2023-06-24T05:05:40;22.50;;;5.80;;
55756;SDS011;41676;44.610;44.078;2023-06-24T05:10:41;15.07;;;5.05;;
55756;SDS011;41676;44.610;44.078;2023-06-24T05:15:42;11.30;;;4.03;;
55756;SDS011;41676;44.610;44.078;2023-06-24T05:20:43;25.60;;;5.45;;
55756;SDS011;41676;44.610;44.078;2023-06-24T05:25:43;9.40;;;4.80;;
55756;SDS011;41676;44.610;44.078;2023-06-24T05:30:44;36.28;;;5.15;;
55756;SDS011;41676;44.610;44.078;2023-06-24T05:35:46;14.18;;;4.07;;
55756;SDS011;41676;44.610;44.078;2023-06-24T05:40:47;17.27;;;3.85;;
55756;SDS011;41676;44.610;44.078;2023-06-24T05:45:47;11.82;;;3.08;;
55756;SDS011;41676;44.610;44.078;2023-06-24T05:50:48;17.48;;;4.00;;
55756;SDS011;41676;44.610;44.078;2023-06-24T05:55:49;15.32;;;3.92;;
55756;SDS011;41676;44.610;44.078;2023-06-24T06:00:50;13.55;;;3.88;;
55756;SDS011;41676;44.610;44.078;2023-06-24T06:05:50;12.27;;;3.97;;
55756;SDS011;41676;44.610;44.078;2023-06-24T06:10:51;17.02;;;3.90;;
55756;SDS011;41676;44.610;44.078;2023-06-24T06:15:52;14.25;;;3.42;;
55756;SDS011;41676;44.610;44.078;2023-06-24T06:20:53;9.63;;;3.95;;
55756;SDS011;41676;44.610;44.078;2023-06-24T06:25:55;16.08;;;3.53;;
55756;SDS011;41676;44.610;44.078;2023-06-24T06:30:56;15.63;;;3.43;;
55756;SDS011;41676;44.610;44.078;2023-06-24T06:35:57;18.55;;;3.05;;
55756;SDS011;41676;44.610;44.078;2023-06-24T06:40:59;15.77;;;3.50;;
55756;SDS011;41676;44.610;44.078;2023-06-24T06:46:00;12.48;;;3.20;;
55756;SDS011;41676;44.610;44.078;2023-06-24T06:51:01;15.77;;;3.17;;
55756;SDS011;41676;44.610;44.078;2023-06-24T06:56:02;7.70;;;2.90;;
55756;SDS011;41676;44.610;44.078;2023-06-24T07:01:02;12.43;;;3.05;;
55756;SDS011;41676;44.610;44.078;2023-06-24T07:06:05;11.85;;;3.20;;
55756;SDS011;41676;44.610;44.078;2023-06-24T07:11:06;20.35;;;3.67;;
55756;SDS011;41676;44.610;44.078;2023-06-24T07:16:06;13.88;;;2.88;;
55756;SDS011;41676;44.610;44.078;2023-06-24T07:21:07;12.52;;;3.20;;
55756;SDS011;41676;44.610;44.078;2023-06-24T07:26:08;12.38;;;2.80;;
55756;SDS011;41676;44.610;44.078;2023-06-24T07:31:09;13.63;;;2.95;;
55756;SDS011;41676;44.610;44.078;2023-06-24T07:36:09;16.90;;;3.22;;
55756;SDS011;41676;44.610;44.078;2023-06-24T07:41:10;8.68;;;3.03;;
55756;SDS011;41676;44.610;44.078;2023-06-24T07:46:11;12.38;;;3.30;;
55756;SDS011;41676;44.610;44.078;2023-06-24T07:51:12;12.23;;;3.10;;
55756;SDS011;41676;44.610;44.078;2023-06-24T07:56:13;14.63;;;3.33;;
55756;SDS011;41676;44.610;44.078;2023-06-24T08:01:13;11.63;;;2.90;;
55756;SDS011;41676;44.610;44.078;2023-06-24T08:06:14;14.70;;;3.80;;
55756;SDS011;41676;44.610;44.078;2023-06-24T08:11:15;8.15;;;2.47;;
55756;SDS011;41676;44.610;44.078;2023-06-24T08:16:17;17.33;;;2.85;;
55756;SDS011;41676;44.610;44.078;2023-06-24T08:21:19;7.70;;;2.70;;
55756;SDS011;41676;44.610;44.078;2023-06-24T08:26:20;8.23;;;2.80;;
55756;SDS011;41676;44.610;44.078;2023-06-24T08:31:21;6.73;;;2.70;;
55756;SDS011;41676;44.610;44.078;2023-06-24T08:36:27;15.88;;;3.83;;
55756;SDS011;41676;44.610;44.078;2023-06-24T08:41:29;8.80;;;2.83;;
55756;SDS011;41676;44.610;44.078;2023-06-24T08:46:30;9.77;;;3.00;;
55756;SDS011;41676;44.610;44.078;2023-06-24T08:51:35;16.42;;;3.42;;
55756;SDS011;41676;44.610;44.078;2023-06-24T08:56:41;11.18;;;2.97;;
55756;SDS011;41676;44.610;44.078;2023-06-24T09:01:42;16.92;;;3.15;;
55756;SDS011;41676;44.610;44.078;2023-06-24T09:06:43;7.78;;;2.80;;
55756;SDS011;41676;44.610;44.078;2023-06-24T09:11:51;10.67;;;3.37;;
55756;SDS011;41676;44.610;44.078;2023-06-24T09:17:02;13.60;;;3.15;;
55756;SDS011;41676;44.610;44.078;2023-06-24T09:22:03;13.98;;;3.20;;
55756;SDS011;41676;44.610;44.078;2023-06-24T09:27:07;11.13;;;3.28;;
55756;SDS011;41676;44.610;44.078;2023-06-24T09:32:09;12.15;;;3.35;;
55756;SDS011;41676;44.610;44.078;2023-06-24T09:37:10;7.50;;;2.65;;
55756;SDS011;41676;44.610;44.078;2023-06-24T09:42:21;14.18;;;3.33;;
55756;SDS011;41676;44.610;44.078;2023-06-24T09:47:25;6.63;;;2.92;;
55756;SDS011;41676;44.610;44.078;2023-06-24T09:57:29;17.42;;;3.38;;
55756;SDS011;41676;44.610;44.078;2023-06-24T10:02:32;8.10;;;2.85;;
55756;SDS011;41676;44.610;44.078;2023-06-24T10:07:34;10.80;;;2.90;;
55756;SDS011;41676;44.610;44.078;2023-06-24T10:17:37;11.45;;;2.75;;
55756;SDS011;41676;44.610;44.078;2023-06-24T10:22:38;6.25;;;3.05;;
55756;SDS011;41676;44.610;44.078;2023-06-24T10:27:39;7.88;;;2.58;;
55756;SDS011;41676;44.610;44.078;2023-06-24T10:32:42;14.40;;;3.30;;
55756;SDS011;41676;44.610;44.078;2023-06-24T10:37:49;9.38;;;2.60;;
55756;SDS011;41676;44.610;44.078;2023-06-24T10:42:55;7.47;;;2.80;;
55756;SDS011;41676;44.610;44.078;2023-06-24T10:47:56;5.90;;;2.55;;
55756;SDS011;41676;44.610;44.078;2023-06-24T10:52:59;10.45;;;3.05;;
55756;SDS011;41676;44.610;44.078;2023-06-24T10:58:08;12.57;;;2.83;;
55756;SDS011;41676;44.610;44.078;2023-06-24T11:08:17;6.97;;;3.08;;
55756;SDS011;41676;44.610;44.078;2023-06-24T11:13:19;10.35;;;3.22;;
55756;SDS011;41676;44.610;44.078;2023-06-24T11:18:20;7.35;;;2.58;;
55756;SDS011;41676;44.610;44.078;2023-06-24T11:23:21;6.50;;;2.90;;
55756;SDS011;41676;44.610;44.078;2023-06-24T11:28:22;34.85;;;3.65;;
55756;SDS011;41676;44.610;44.078;2023-06-24T11:33:27;13.55;;;2.92;;
55756;SDS011;41676;44.610;44.078;2023-06-24T11:38:28;9.85;;;2.85;;
55756;SDS011;41676;44.610;44.078;2023-06-24T11:43:32;15.93;;;3.45;;
55756;SDS011;41676;44.610;44.078;2023-06-24T11:48:38;19.75;;;3.58;;
55756;SDS011;41676;44.610;44.078;2023-06-24T11:53:40;13.60;;;2.95;;
55756;SDS011;41676;44.610;44.078;2023-06-24T11:58:43;6.38;;;2.53;;
55756;SDS011;41676;44.610;44.078;2023-06-24T12:03:44;10.15;;;2.95;;
55756;SDS011;41676;44.610;44.078;2023-06-24T12:08:45;9.98;;;2.65;;
55756;SDS011;41676;44.610;44.078;2023-06-24T12:13:46;8.73;;;2.53;;
55756;SDS011;41676;44.610;44.078;2023-06-24T12:18:46;14.27;;;2.80;;
55756;SDS011;41676;44.610;44.078;2023-06-24T12:23:47;8.27;;;2.47;;
55756;SDS011;41676;44.610;44.078;2023-06-24T12:28:48;10.18;;;2.65;;
55756;SDS011;41676;44.610;44.078;2023-06-24T12:33:50;40.03;;;4.65;;
55756;SDS011;41676;44.610;44.078;2023-06-24T12:38:51;6.18;;;2.53;;
55756;SDS011;41676;44.610;44.078;2023-06-24T12:43:52;8.35;;;2.95;;
55756;SDS011;41676;44.610;44.078;2023-06-24T12:48:52;8.23;;;2.60;;
55756;SDS011;41676;44.610;44.078;2023-06-24T12:53:53;9.93;;;2.67;;
55756;SDS011;41676;44.610;44.078;2023-06-24T12:58:54;8.50;;;2.40;;
55756;SDS011;41676;44.610;44.078;2023-06-24T13:03:55;6.68;;;2.55;;
55756;SDS011;41676;44.610;44.078;2023-06-24T13:08:56;7.38;;;2.60;;
55756;SDS011;41676;44.610;44.078;2023-06-24T13:13:56;10.32;;;2.65;;
55756;SDS011;41676;44.610;44.078;2023-06-24T13:18:57;6.65;;;2.58;;
55756;SDS011;41676;44.610;44.078;2023-06-24T13:23:58;12.10;;;2.75;;
55756;SDS011;41676;44.610;44.078;2023-06-24T13:28:59;20.30;;;2.70;;
55756;SDS011;41676;44.610;44.078;2023-06-24T13:33:59;18.35;;;3.15;;
55756;SDS011;41676;44.610;44.078;2023-06-24T13:39:01;11.82;;;2.97;;
55756;SDS011;41676;44.610;44.078;2023-06-24T13:44:06;7.68;;;2.63;;
55756;SDS011;41676;44.610;44.078;2023-06-24T13:49:06;11.40;;;2.85;;
55756;SDS011;41676;44.610;44.078;2023-06-24T13:54:07;14.77;;;3.13;;
55756;SDS011;41676;44.610;44.078;2023-06-24T13:59:10;10.88;;;2.53;;
55756;SDS011;41676;44.610;44.078;2023-06-24T14:04:11;11.75;;;3.63;;
55756;SDS011;41676;44.610;44.078;2023-06-24T14:09:11;6.78;;;2.80;;
55756;SDS011;41676;44.610;44.078;2023-06-24T14:14:13;7.63;;;3.17;;
55756;SDS011;41676;44.610;44.078;2023-06-24T14:19:13;6.95;;;3.00;;
55756;SDS011;41676;44.610;44.078;2023-06-24T14:24:14;9.05;;;2.67;;
55756;SDS011;41676;44.610;44.078;2023-06-24T14:29:15;85.15;;;7.00;;
55756;SDS011;41676;44.610;44.078;2023-06-24T14:34:16;26.63;;;3.80;;
55756;SDS011;41676;44.610;44.078;2023-06-24T14:39:17;43.47;;;4.90;;
55756;SDS011;41676;44.610;44.078;2023-06-24T14:44:18;24.05;;;2.97;;
55756;SDS011;41676;44.610;44.078;2023-06-24T14:49:18;4.30;;;2.53;;
55756;SDS011;41676;44.610;44.078;2023-06-24T14:54:19;6.38;;;3.00;;
55756;SDS011;41676;44.610;44.078;2023-06-24T14:59:20;15.93;;;3.25;;
55756;SDS011;41676;44.610;44.078;2023-06-24T15:04:21;7.63;;;2.75;;
55756;SDS011;41676;44.610;44.078;2023-06-24T15:09:22;15.48;;;3.03;;
55756;SDS011;41676;44.610;44.078;2023-06-24T15:14:23;5.07;;;2.60;;
55756;SDS011;41676;44.610;44.078;2023-06-24T15:19:24;5.25;;;2.60;;
55756;SDS011;41676;44.610;44.078;2023-06-24T15:24:25;12.57;;;3.22;;
55756;SDS011;41676;44.610;44.078;2023-06-24T15:29:26;13.68;;;3.20;;
55756;SDS011;41676;44.610;44.078;2023-06-24T15:34:27;6.68;;;2.47;;
55756;SDS011;41676;44.610;44.078;2023-06-24T15:39:28;9.97;;;3.10;;
55756;SDS011;41676;44.610;44.078;2023-06-24T15:44:30;17.92;;;3.28;;
55756;SDS011;41676;44.610;44.078;2023-06-24T15:49:30;9.10;;;2.83;;
55756;SDS011;41676;44.610;44.078;2023-06-24T15:54:31;6.95;;;2.65;;
55756;SDS011;41676;44.610;44.078;2023-06-24T15:59:32;8.77;;;2.97;;
55756;SDS011;41676;44.610;44.078;2023-06-24T16:04:33;10.45;;;3.20;;
55756;SDS011;41676;44.610;44.078;2023-06-24T16:09:34;20.02;;;3.05;;
55756;SDS011;41676;44.610;44.078;2023-06-24T16:14:35;15.38;;;3.20;;
55756;SDS011;41676;44.610;44.078;2023-06-24T16:19:35;17.20;;;3.90;;
55756;SDS011;41676;44.610;44.078;2023-06-24T16:24:36;14.38;;;2.70;;
55756;SDS011;41676;44.610;44.078;2023-06-24T16:29:37;19.05;;;3.78;;
55756;SDS011;41676;44.610;44.078;2023-06-24T16:34:38;22.38;;;3.72;;
55756;SDS011;41676;44.610;44.078;2023-06-24T16:39:39;20.00;;;2.97;;
55756;SDS011;41676;44.610;44.078;2023-06-24T16:44:40;8.15;;;3.10;;
55756;SDS011;41676;44.610;44.078;2023-06-24T16:49:40;6.32;;;3.25;;
55756;SDS011;41676;44.610;44.078;2023-06-24T16:54:41;16.67;;;3.28;;
55756;SDS011;41676;44.610;44.078;2023-06-24T16:59:42;20.02;;;3.83;;
55756;SDS011;41676;44.610;44.078;2023-06-24T17:04:43;24.60;;;3.28;;
55756;SDS011;41676;44.610;44.078;2023-06-24T17:09:43;33.88;;;5.38;;
55756;SDS011;41676;44.610;44.078;2023-06-24T17:14:44;18.35;;;3.90;;
55756;SDS011;41676;44.610;44.078;2023-06-24T17:19:46;29.70;;;3.80;;
55756;SDS011;41676;44.610;44.078;2023-06-24T17:24:46;15.77;;;3.13;;
55756;SDS011;41676;44.610;44.078;2023-06-24T17:29:47;12.20;;;3.72;;
55756;SDS011;41676;44.610;44.078;2023-06-24T17:34:49;8.63;;;3.40;;
55756;SDS011;41676;44.610;44.078;2023-06-24T17:39:50;20.60;;;4.53;;
55756;SDS011;41676;44.610;44.078;2023-06-24T17:44:51;21.15;;;4.28;;
55756;SDS011;41676;44.610;44.078;2023-06-24T17:49:52;29.77;;;4.95;;
55756;SDS011;41676;44.610;44.078;2023-06-24T17:54:52;30.73;;;5.63;;
55756;SDS011;41676;44.610;44.078;2023-06-24T17:59:53;64.00;;;8.15;;
55756;SDS011;41676;44.610;44.078;2023-06-24T18:04:54;40.85;;;8.93;;
55756;SDS011;41676;44.610;44.078;2023-06-24T18:09:55;62.30;;;9.52;;
55756;SDS011;41676;44.610;44.078;2023-06-24T18:14:56;47.10;;;12.48;;
55756;SDS011;41676;44.610;44.078;2023-06-24T18:19:57;44.22;;;10.55;;
55756;SDS011;41676;44.610;44.078;2023-06-24T18:24:57;55.65;;;10.85;;
55756;SDS011;41676;44.610;44.078;2023-06-24T18:30:01;42.25;;;11.85;;
55756;SDS011;41676;44.610;44.078;2023-06-24T18:35:02;73.15;;;13.35;;
55756;SDS011;41676;44.610;44.078;2023-06-24T18:40:03;42.38;;;12.05;;
55756;SDS011;41676;44.610;44.078;2023-06-24T18:45:04;33.40;;;7.78;;
55756;SDS011;41676;44.610;44.078;2023-06-24T18:50:06;39.75;;;7.13;;
55756;SDS011;41676;44.610;44.078;2023-06-24T18:55:07;39.67;;;6.93;;
55756;SDS011;41676;44.610;44.078;2023-06-24T19:00:08;36.83;;;6.70;;
55756;SDS011;41676;44.610;44.078;2023-06-24T19:05:09;25.50;;;5.57;;
55756;SDS011;41676;44.610;44.078;2023-06-24T19:10:10;44.05;;;5.63;;
55756;SDS011;41676;44.610;44.078;2023-06-24T19:15:11;38.13;;;6.18;;
55756;SDS011;41676;44.610;44.078;2023-06-24T19:20:12;48.45;;;6.60;;
55756;SDS011;41676;44.610;44.078;2023-06-24T19:25:13;61.63;;;6.28;;
55756;SDS011;41676;44.610;44.078;2023-06-24T19:30:14;33.25;;;5.85;;
55756;SDS011;41676;44.610;44.078;2023-06-24T19:35:16;26.88;;;5.63;;
55756;SDS011;41676;44.610;44.078;2023-06-24T19:40:18;39.33;;;6.37;;
55756;SDS011;41676;44.610;44.078;2023-06-24T19:45:21;38.30;;;4.50;;
55756;SDS011;41676;44.610;44.078;2023-06-24T19:50:22;33.30;;;5.40;;
55756;SDS011;41676;44.610;44.078;2023-06-24T19:55:23;37.03;;;5.45;;
55756;SDS011;41676;44.610;44.078;2023-06-24T20:00:24;32.72;;;5.10;;
55756;SDS011;41676;44.610;44.078;2023-06-24T20:05:25;55.28;;;5.85;;
55756;SDS011;41676;44.610;44.078;2023-06-24T20:10:26;26.42;;;4.38;;
55756;SDS011;41676;44.610;44.078;2023-06-24T20:15:26;48.47;;;6.53;;
55756;SDS011;41676;44.610;44.078;2023-06-24T20:20:27;32.00;;;5.07;;
55756;SDS011;41676;44.610;44.078;2023-06-24T20:25:28;22.52;;;5.38;;
55756;SDS011;41676;44.610;44.078;2023-06-24T20:30:29;33.97;;;4.95;;
55756;SDS011;41676;44.610;44.078;2023-06-24T20:35:30;34.17;;;5.07;;
55756;SDS011;41676;44.610;44.078;2023-06-24T20:40:31;31.08;;;5.13;;
55756;SDS011;41676;44.610;44.078;2023-06-24T20:45:32;29.75;;;5.65;;
55756;SDS011;41676;44.610;44.078;2023-06-24T20:50:33;20.02;;;4.55;;
55756;SDS011;41676;44.610;44.078;2023-06-24T20:55:33;28.33;;;4.78;;
55756;SDS011;41676;44.610;44.078;2023-06-24T21:00:34;22.20;;;5.10;;
55756;SDS011;41676;44.610;44.078;2023-06-24T21:05:35;25.00;;;4.90;;
55756;SDS011;41676;44.610;44.078;2023-06-24T21:10:36;27.02;;;5.05;;
55756;SDS011;41676;44.610;44.078;2023-06-24T21:15:36;28.30;;;4.47;;
55756;SDS011;41676;44.610;44.078;2023-06-24T21:20:37;19.30;;;4.75;;
55756;SDS011;41676;44.610;44.078;2023-06-24T21:25:38;19.70;;;4.80;;
55756;SDS011;41676;44.610;44.078;2023-06-24T21:30:40;31.20;;;4.22;;
55756;SDS011;41676;44.610;44.078;2023-06-24T21:35:41;16.23;;;4.15;;
55756;SDS011;41676;44.610;44.078;2023-06-24T21:40:41;17.63;;;4.22;;
55756;SDS011;41676;44.610;44.078;2023-06-24T21:45:42;14.18;;;3.90;;
55756;SDS011;41676;44.610;44.078;2023-06-24T21:50:43;21.55;;;3.50;;
55756;SDS011;41676;44.610;44.078;2023-06-24T21:55:44;28.27;;;4.05;;
55756;SDS011;41676;44.610;44.078;2023-06-24T22:00:45;20.67;;;4.13;;
55756;SDS011;41676;44.610;44.078;2023-06-24T22:05:46;17.05;;;4.28;;
55756;SDS011;41676;44.610;44.078;2023-06-24T22:10:47;18.67;;;4.63;;
55756;SDS011;41676;44.610;44.078;2023-06-24T22:15:49;14.75;;;3.85;;
55756;SDS011;41676;44.610;44.078;2023-06-24T22:20:49;18.85;;;3.92;;
55756;SDS011;41676;44.610;44.078;2023-06-24T22:25:50;19.65;;;4.10;;
55756;SDS011;41676;44.610;44.078;2023-06-24T22:30:51;14.85;;;4.05;;
55756;SDS011;41676;44.610;44.078;2023-06-24T22:35:52;26.92;;;4.05;;
55756;SDS011;41676;44.610;44.078;2023-06-24T22:40:53;20.23;;;4.05;;
55756;SDS011;41676;44.610;44.078;2023-06-24T22:45:53;19.38;;;4.55;;
55756;SDS011;41676;44.610;44.078;2023-06-24T22:50:54;13.55;;;4.30;;
55756;SDS011;41676;44.610;44.078;2023-06-24T22:55:55;13.00;;;4.20;;
55756;SDS011;41676;44.610;44.078;2023-06-24T23:00:56;21.95;;;5.32;;
55756;SDS011;41676;44.610;44.078;2023-06-24T23:05:58;19.05;;;4.72;;
55756;SDS011;41676;44.610;44.078;2023-06-24T23:10:59;23.80;;;5.35;;
55756;SDS011;41676;44.610;44.078;2023-06-24T23:16:00;23.90;;;5.20;;
55756;SDS011;41676;44.610;44.078;2023-06-24T23:21:02;18.50;;;5.78;;
55756;SDS011;41676;44.610;44.078;2023-06-24T23:26:04;14.05;;;4.22;;
55756;SDS011;41676;44.610;44.078;2023-06-24T23:31:08;16.60;;;4.63;;
55756;SDS011;41676;44.610;44.078;2023-06-24T23:36:12;10.18;;;4.40;;
55756;SDS011;41676;44.610;44.078;2023-06-24T23:41:13;13.23;;;4.13;;
55756;SDS011;41676;44.610;44.078;2023-06-24T23:46:15;14.95;;;4.20;;
55756;SDS011;41676;44.610;44.078;2023-06-24T23:51:16;14.07;;;4.38;;
55756;SDS011;41676;44.610;44.078;2023-06-24T23:56:16;20.45;;;4.68;;
